Time,TemperatureF,DewpointF,PressureIn,WindDirection,WindDirectionDegrees,WindSpeedMPH,WindSpeedGustMPH,Humidity,HourlyPrecipIn,Conditions,Clouds,dailyrainin,SolarRadiationWatts/m^2,SoftwareType,DateUTC
2017-03-23 00:01:00,39.6,36.3,29.71,SSW,206,0.0,0.0,88,0.00,,,0.00,0,WeatherCatV2.41B14,2017-03-23 06:01:00,
2017-03-23 00:06:00,39.5,36.2,29.71,SSW,206,0.0,0.0,88,0.00,,,0.00,0,WeatherCatV2.41B14,2017-03-23 06:06:00,
2017-03-23 00:11:00,39.7,36.4,29.70,SSW,206,0.0,0.0,88,0.00,,,0.00,0,WeatherCatV2.41B14,2017-03-23 06:11:00,
2017-03-23 00:16:00,39.8,36.2,29.70,SSW,206,0.0,0.0,87,0.00,,,0.00,0,WeatherCatV2.41B14,2017-03-23 06:16:00,
2017-03-23 00:21:00,39.6,36.3,29.69,SSW,206,0.0,0.0,88,0.00,,,0.00,0,WeatherCatV2.41B14,2017-03-23 06:21:00,
2017-03-23 00:26:00,39.4,36.2,29.69,SSW,206,0.0,0.0,88,0.00,,,0.00,0,WeatherCatV2.41B14,2017-03-23 06:26:00,
2017-03-23 00:31:00,39.2,36.0,29.69,SSW,206,0.0,0.0,88,0.00,,,0.00,0,WeatherCatV2.41B14,2017-03-23 06:31:00,
2017-03-23 00:36:00,39.1,36.1,29.69,SSW,206,0.0,0.0,89,0.00,,,0.00,0,WeatherCatV2.41B14,2017-03-23 06:36:00,
2017-03-23 00:41:00,39.0,36.0,29.69,SSW,206,0.0,0.0,89,0.00,,,0.00,0,WeatherCatV2.41B14,2017-03-23 06:41:00,
2017-03-23 00:46:00,38.9,35.9,29.70,SSW,206,0.0,0.0,89,0.00,,,0.00,0,WeatherCatV2.41B14,2017-03-23 06:46:00,
2017-03-23 00:51:00,38.9,35.9,29.69,SSW,206,0.0,0.0,89,0.00,,,0.00,0,WeatherCatV2.41B14,2017-03-23 06:51:00,
2017-03-23 00:56:00,39.1,36.4,29.70,SSW,206,0.0,0.0,90,0.00,,,0.00,0,WeatherCatV2.41B14,2017-03-23 06:56:00,
2017-03-23 01:01:00,39.5,36.8,29.69,SSW,206,0.0,0.0,90,0.00,,,0.00,0,WeatherCatV2.41B14,2017-03-23 07:01:00,
2017-03-23 01:06:00,40.2,37.5,29.69,WSW,251,0.0,3.0,90,0.00,,,0.00,0,WeatherCatV2.41B14,2017-03-23 07:06:00,
2017-03-23 01:11:00,41.2,37.9,29.69,West,268,2.0,4.0,88,0.00,,,0.00,0,WeatherCatV2.41B14,2017-03-23 07:11:00,
2017-03-23 01:16:00,42.4,38.5,29.69,West,271,2.0,3.0,86,0.00,,,0.00,0,WeatherCatV2.41B14,2017-03-23 07:16:00,
2017-03-23 01:21:00,43.4,38.9,29.68,WNW,284,3.0,4.0,84,0.00,,,0.00,0,WeatherCatV2.41B14,2017-03-23 07:21:00,
2017-03-23 01:26:00,44.3,38.8,29.68,WNW,296,4.0,8.0,81,0.00,,,0.00,0,WeatherCatV2.41B14,2017-03-23 07:26:00,
2017-03-23 01:31:00,44.8,39.0,29.68,WNW,286,3.0,10.0,80,0.00,,,0.00,0,WeatherCatV2.41B14,2017-03-23 07:31:00,
2017-03-23 01:36:00,45.1,39.0,29.67,WNW,300,4.0,7.0,79,0.00,,,0.00,0,WeatherCatV2.41B14,2017-03-23 07:36:00,
2017-03-23 01:41:00,45.3,38.8,29.67,West,271,6.0,8.0,78,0.00,,,0.00,0,WeatherCatV2.41B14,2017-03-23 07:41:00,
2017-03-23 01:46:00,45.4,39.0,29.67,WNW,294,2.0,8.0,78,0.00,,,0.00,0,WeatherCatV2.41B14,2017-03-23 07:46:00,
2017-03-23 01:51:00,45.6,39.1,29.67,WNW,298,5.0,10.0,78,0.00,,,0.00,0,WeatherCatV2.41B14,2017-03-23 07:51:00,
2017-03-23 01:56:00,45.6,38.8,29.67,WNW,285,3.0,3.0,77,0.00,,,0.00,0,WeatherCatV2.41B14,2017-03-23 07:56:00,
2017-03-23 02:01:00,45.6,39.1,29.67,WNW,283,6.0,11.0,78,0.00,,,0.00,0,WeatherCatV2.41B14,2017-03-23 08:01:00,
2017-03-23 02:06:00,45.7,39.2,29.66,WNW,294,4.0,4.0,78,0.00,,,0.00,0,WeatherCatV2.41B14,2017-03-23 08:06:00,
2017-03-23 02:11:00,45.8,39.3,29.66,West,280,1.0,6.0,78,0.00,,,0.00,0,WeatherCatV2.41B14,2017-03-23 08:11:00,
2017-03-23 02:16:00,45.7,39.2,29.66,WNW,293,0.0,2.0,78,0.00,,,0.00,0,WeatherCatV2.41B14,2017-03-23 08:16:00,
2017-03-23 02:21:00,45.3,38.8,29.66,WNW,293,0.0,1.0,78,0.00,,,0.00,0,WeatherCatV2.41B14,2017-03-23 08:21:00,
2017-03-23 02:26:00,44.9,39.1,29.66,West,276,0.0,6.0,80,0.00,,,0.00,0,WeatherCatV2.41B14,2017-03-23 08:26:00,
2017-03-23 02:31:00,44.4,38.9,29.67,NW,304,3.0,5.0,81,0.00,,,0.00,0,WeatherCatV2.41B14,2017-03-23 08:31:00,
2017-03-23 02:36:00,44.2,39.1,29.67,WNW,299,3.0,9.0,82,0.00,,,0.00,0,WeatherCatV2.41B14,2017-03-23 08:36:00,
2017-03-23 02:41:00,44.0,38.9,29.67,NW,319,1.0,3.0,82,0.00,,,0.00,0,WeatherCatV2.41B14,2017-03-23 08:41:00,
2017-03-23 02:46:00,43.8,39.0,29.67,NW,306,7.0,9.0,83,0.00,,,0.00,0,WeatherCatV2.41B14,2017-03-23 08:46:00,
2017-03-23 02:51:00,43.8,39.0,29.67,WNW,302,8.0,14.0,83,0.00,,,0.00,0,WeatherCatV2.41B14,2017-03-23 08:51:00,
2017-03-23 02:56:00,43.8,39.0,29.66,NNW,334,6.0,13.0,83,0.00,,,0.00,0,WeatherCatV2.41B14,2017-03-23 08:56:00,
2017-03-23 03:01:00,43.8,39.0,29.67,West,279,3.0,11.0,83,0.00,,,0.00,0,WeatherCatV2.41B14,2017-03-23 09:01:00,
2017-03-23 03:06:00,43.6,38.5,29.67,West,281,6.0,13.0,82,0.00,,,0.00,0,WeatherCatV2.41B14,2017-03-23 09:06:00,
2017-03-23 03:11:00,43.5,38.4,29.67,WNW,291,14.0,14.0,82,0.00,,,0.00,0,WeatherCatV2.41B14,2017-03-23 09:11:00,
2017-03-23 03:21:00,43.3,37.9,29.67,NW,316,1.0,3.0,81,0.00,,,0.00,0,WeatherCatV2.41B14,2017-03-23 09:21:00,
2017-03-23 03:26:00,43.2,37.5,29.66,North,0,2.0,4.0,80,0.00,,,0.00,0,WeatherCatV2.41B14,2017-03-23 09:26:00,
2017-03-23 03:31:00,43.0,37.6,29.66,West,278,4.0,6.0,81,0.00,,,0.00,0,WeatherCatV2.41B14,2017-03-23 09:31:00,
2017-03-23 03:36:00,42.7,37.3,29.66,WNW,282,2.0,5.0,81,0.00,,,0.00,0,WeatherCatV2.41B14,2017-03-23 09:36:00,
2017-03-23 03:41:00,42.6,37.5,29.66,West,279,1.0,1.0,82,0.00,,,0.00,0,WeatherCatV2.41B14,2017-03-23 09:41:00,
2017-03-23 03:46:00,42.5,38.0,29.66,West,279,2.0,2.0,84,0.00,,,0.00,0,WeatherCatV2.41B14,2017-03-23 09:46:00,
2017-03-23 03:51:00,42.3,37.8,29.66,West,279,0.0,1.0,84,0.00,,,0.00,0,WeatherCatV2.41B14,2017-03-23 09:51:00,
2017-03-23 03:56:00,42.0,37.8,29.66,WNW,291,4.0,5.0,85,0.00,,,0.00,0,WeatherCatV2.41B14,2017-03-23 09:56:00,
2017-03-23 04:01:00,41.9,37.4,29.66,WNW,282,2.0,4.0,84,0.00,,,0.00,0,WeatherCatV2.41B14,2017-03-23 10:01:00,
2017-03-23 04:06:00,41.9,37.1,29.65,NW,313,2.0,4.0,83,0.00,,,0.00,0,WeatherCatV2.41B14,2017-03-23 10:06:00,
2017-03-23 04:11:00,42.0,37.2,29.65,WNW,294,2.0,3.0,83,0.00,,,0.00,0,WeatherCatV2.41B14,2017-03-23 10:11:00,
2017-03-23 04:16:00,42.0,37.2,29.65,WNW,301,1.0,1.0,83,0.00,,,0.00,0,WeatherCatV2.41B14,2017-03-23 10:16:00,
2017-03-23 04:21:00,42.0,37.2,29.65,NW,310,2.0,4.0,83,0.00,,,0.00,0,WeatherCatV2.41B14,2017-03-23 10:21:00,
2017-03-23 04:26:00,42.1,37.6,29.65,NW,313,2.0,5.0,84,0.00,,,0.00,0,WeatherCatV2.41B14,2017-03-23 10:26:00,
2017-03-23 04:31:00,42.1,37.6,29.65,WNW,291,2.0,4.0,84,0.00,,,0.00,0,WeatherCatV2.41B14,2017-03-23 10:31:00,
2017-03-23 04:36:00,42.1,37.6,29.65,WNW,292,1.0,4.0,84,0.00,,,0.00,0,WeatherCatV2.41B14,2017-03-23 10:36:00,
2017-03-23 04:41:00,42.1,37.6,29.65,WNW,292,1.0,2.0,84,0.00,,,0.00,0,WeatherCatV2.41B14,2017-03-23 10:41:00,
2017-03-23 04:46:00,41.9,37.4,29.65,WNW,292,0.0,0.0,84,0.00,,,0.00,0,WeatherCatV2.41B14,2017-03-23 10:46:00,
2017-03-23 04:51:00,41.7,37.2,29.65,WNW,298,2.0,4.0,84,0.00,,,0.00,0,WeatherCatV2.41B14,2017-03-23 10:51:00,
2017-03-23 04:56:00,41.6,37.1,29.65,WNW,299,3.0,4.0,84,0.00,,,0.00,0,WeatherCatV2.41B14,2017-03-23 10:56:00,
2017-03-23 05:01:00,41.5,37.0,29.65,WNW,282,4.0,6.0,84,0.00,,,0.00,0,WeatherCatV2.41B14,2017-03-23 11:01:00,
2017-03-23 05:06:00,41.5,37.3,29.65,WNW,296,2.0,4.0,85,0.00,,,0.00,0,WeatherCatV2.41B14,2017-03-23 11:06:00,
2017-03-23 05:11:00,41.3,37.1,29.65,WNW,291,3.0,8.0,85,0.00,,,0.00,0,WeatherCatV2.41B14,2017-03-23 11:11:00,
2017-03-23 05:16:00,41.1,37.2,29.65,WNW,286,4.0,8.0,86,0.00,,,0.00,0,WeatherCatV2.41B14,2017-03-23 11:16:00,
2017-03-23 05:21:00,41.0,37.1,29.65,WNW,288,5.0,7.0,86,0.00,,,0.00,0,WeatherCatV2.41B14,2017-03-23 11:21:00,
2017-03-23 05:26:00,40.9,37.3,29.65,WNW,298,4.0,7.0,87,0.00,,,0.00,0,WeatherCatV2.41B14,2017-03-23 11:26:00,
2017-03-23 05:31:00,40.8,36.9,29.64,WNW,287,4.0,9.0,86,0.00,,,0.00,0,WeatherCatV2.41B14,2017-03-23 11:31:00,
2017-03-23 05:36:00,40.7,36.8,29.64,WNW,284,6.0,7.0,86,0.00,,,0.00,0,WeatherCatV2.41B14,2017-03-23 11:36:00,
2017-03-23 05:41:00,40.5,36.7,29.65,West,268,7.0,9.0,86,0.00,,,0.00,0,WeatherCatV2.41B14,2017-03-23 11:41:00,
2017-03-23 05:46:00,40.5,36.7,29.65,West,281,4.0,7.0,86,0.00,,,0.00,0,WeatherCatV2.41B14,2017-03-23 11:46:00,
2017-03-23 05:51:00,40.5,36.7,29.65,WNW,282,4.0,7.0,86,0.00,,,0.00,0,WeatherCatV2.41B14,2017-03-23 11:51:00,
2017-03-23 05:56:00,40.4,36.8,29.65,WNW,300,5.0,11.0,87,0.00,,,0.00,0,WeatherCatV2.41B14,2017-03-23 11:56:00,
2017-03-23 06:01:00,40.3,36.7,29.64,West,278,7.0,9.0,87,0.00,,,0.00,0,WeatherCatV2.41B14,2017-03-23 12:01:00,
2017-03-23 06:06:00,40.2,36.7,29.65,WNW,300,5.0,5.0,87,0.00,,,0.00,0,WeatherCatV2.41B14,2017-03-23 12:06:00,
2017-03-23 06:11:00,40.0,36.5,29.65,WNW,290,3.0,8.0,87,0.00,,,0.00,0,WeatherCatV2.41B14,2017-03-23 12:11:00,
2017-03-23 06:16:00,39.9,36.3,29.65,West,263,4.0,9.0,87,0.00,,,0.00,0,WeatherCatV2.41B14,2017-03-23 12:16:00,
2017-03-23 06:21:00,39.8,36.5,29.65,WNW,287,5.0,8.0,88,0.00,,,0.00,0,WeatherCatV2.41B14,2017-03-23 12:21:00,
2017-03-23 06:26:00,39.6,36.3,29.64,WNW,286,8.0,8.0,88,0.00,,,0.00,0,WeatherCatV2.41B14,2017-03-23 12:26:00,
2017-03-23 06:31:00,39.4,36.2,29.65,West,281,4.0,9.0,88,0.00,,,0.00,0,WeatherCatV2.41B14,2017-03-23 12:31:00,
2017-03-23 06:36:00,39.3,36.3,29.65,West,279,3.0,8.0,89,0.00,,,0.00,0,WeatherCatV2.41B14,2017-03-23 12:36:00,
2017-03-23 06:41:00,39.1,36.1,29.65,WNW,286,6.0,6.0,89,0.00,,,0.00,0,WeatherCatV2.41B14,2017-03-23 12:41:00,
2017-03-23 06:46:00,38.9,36.2,29.65,WNW,286,2.0,4.0,90,0.00,,,0.00,0,WeatherCatV2.41B14,2017-03-23 12:46:00,
2017-03-23 06:51:00,38.9,36.2,29.65,WNW,296,1.0,4.0,90,0.00,,,0.00,0,WeatherCatV2.41B14,2017-03-23 12:51:00,
2017-03-23 06:56:00,38.9,36.2,29.65,WNW,298,3.0,5.0,90,0.00,,,0.00,0,WeatherCatV2.41B14,2017-03-23 12:56:00,
2017-03-23 07:01:00,38.8,36.1,29.65,WNW,294,2.0,5.0,90,0.00,,,0.00,0,WeatherCatV2.41B14,2017-03-23 13:01:00,
2017-03-23 07:06:00,38.8,36.1,29.65,WNW,296,3.0,5.0,90,0.00,,,0.00,0,WeatherCatV2.41B14,2017-03-23 13:06:00,
2017-03-23 07:11:00,38.7,36.0,29.65,NW,307,4.0,8.0,90,0.00,,,0.00,0,WeatherCatV2.41B14,2017-03-23 13:11:00,
2017-03-23 07:16:00,38.6,35.9,29.65,WNW,288,9.0,9.0,90,0.00,,,0.00,0,WeatherCatV2.41B14,2017-03-23 13:16:00,
2017-03-23 07:26:00,38.6,35.9,29.65,WNW,283,7.0,10.0,90,0.00,,,0.00,5,WeatherCatV2.41B14,2017-03-23 13:26:00,
2017-03-23 07:31:00,38.7,35.7,29.65,West,276,7.0,9.0,89,0.00,,,0.00,7,WeatherCatV2.41B14,2017-03-23 13:31:00,
2017-03-23 07:36:00,38.6,35.6,29.65,NW,309,3.0,7.0,89,0.00,,,0.00,7,WeatherCatV2.41B14,2017-03-23 13:36:00,
2017-03-23 07:41:00,38.6,35.9,29.65,WNW,282,6.0,9.0,90,0.00,,,0.00,11,WeatherCatV2.41B14,2017-03-23 13:41:00,
2017-03-23 07:46:00,38.6,35.9,29.65,NW,310,3.0,4.0,90,0.00,,,0.00,14,WeatherCatV2.41B14,2017-03-23 13:46:00,
2017-03-23 07:51:00,38.6,35.9,29.65,WNW,289,2.0,5.0,90,0.00,,,0.00,19,WeatherCatV2.41B14,2017-03-23 13:51:00,
2017-03-23 07:56:00,38.6,35.9,29.65,WNW,284,3.0,4.0,90,0.00,,,0.00,23,WeatherCatV2.41B14,2017-03-23 13:56:00,
2017-03-23 08:01:00,38.6,35.9,29.66,WNW,283,2.0,4.0,90,0.00,,,0.00,21,WeatherCatV2.41B14,2017-03-23 14:01:00,
2017-03-23 08:06:00,38.6,35.9,29.66,WNW,284,1.0,2.0,90,0.00,,,0.00,26,WeatherCatV2.41B14,2017-03-23 14:06:00,
2017-03-23 08:11:00,38.6,36.2,29.66,WNW,302,2.0,4.0,91,0.00,,,0.00,30,WeatherCatV2.41B14,2017-03-23 14:11:00,
2017-03-23 08:16:00,38.6,36.2,29.66,NW,304,2.0,4.0,91,0.00,,,0.00,33,WeatherCatV2.41B14,2017-03-23 14:16:00,
2017-03-23 08:21:00,38.6,36.2,29.66,WNW,297,2.0,3.0,91,0.00,,,0.00,35,WeatherCatV2.41B14,2017-03-23 14:21:00,
2017-03-23 08:26:00,38.7,36.3,29.67,WNW,302,4.0,7.0,91,0.00,,,0.00,37,WeatherCatV2.41B14,2017-03-23 14:26:00,
2017-03-23 08:31:00,38.8,36.4,29.67,WNW,296,2.0,6.0,91,0.00,,,0.00,46,WeatherCatV2.41B14,2017-03-23 14:31:00,
2017-03-23 08:46:00,38.8,36.7,29.67,WNW,295,3.0,3.0,92,0.00,,,0.00,40,WeatherCatV2.41B14,2017-03-23 14:46:00,
2017-03-23 08:51:00,38.7,36.6,29.67,WNW,294,4.0,5.0,92,0.00,,,0.00,37,WeatherCatV2.41B14,2017-03-23 14:51:00,
2017-03-23 08:56:00,38.6,36.5,29.67,WNW,291,2.0,3.0,92,0.00,,,0.00,33,WeatherCatV2.41B14,2017-03-23 14:56:00,
2017-03-23 09:01:00,38.5,36.4,29.67,WNW,287,1.0,2.0,92,0.00,,,0.00,28,WeatherCatV2.41B14,2017-03-23 15:01:00,
2017-03-23 09:06:00,38.4,36.3,29.68,WNW,286,0.0,1.0,92,0.00,,,0.00,30,WeatherCatV2.41B14,2017-03-23 15:06:00,
2017-03-23 09:11:00,38.4,36.6,29.68,WNW,293,0.0,2.0,93,0.00,,,0.00,44,WeatherCatV2.41B14,2017-03-23 15:11:00,
2017-03-23 09:16:00,38.4,36.6,29.68,WNW,293,1.0,1.0,93,0.00,,,0.00,54,WeatherCatV2.41B14,2017-03-23 15:16:00,
2017-03-23 09:21:00,38.4,36.6,29.68,WNW,294,0.0,2.0,93,0.00,,,0.00,58,WeatherCatV2.41B14,2017-03-23 15:21:00,
2017-03-23 09:26:00,38.4,36.6,29.68,NW,320,1.0,3.0,93,0.00,,,0.00,42,WeatherCatV2.41B14,2017-03-23 15:26:00,
2017-03-23 09:31:00,38.3,36.5,29.68,NW,316,0.0,0.0,93,0.00,,,0.00,40,WeatherCatV2.41B14,2017-03-23 15:31:00,
2017-03-23 09:36:00,38.2,36.4,29.68,NW,316,0.0,0.0,93,0.00,,,0.00,44,WeatherCatV2.41B14,2017-03-23 15:36:00,
2017-03-23 09:41:00,38.2,36.4,29.68,NW,316,0.0,1.0,93,0.00,,,0.00,44,WeatherCatV2.41B14,2017-03-23 15:41:00,
2017-03-23 09:46:00,38.2,36.4,29.68,NW,316,0.0,0.0,93,0.00,,,0.00,69,WeatherCatV2.41B14,2017-03-23 15:46:00,
2017-03-23 09:51:00,38.1,36.3,29.68,NW,316,0.0,0.0,93,0.00,,,0.00,102,WeatherCatV2.41B14,2017-03-23 15:51:00,
2017-03-23 09:56:00,38.0,36.2,29.68,WNW,300,4.0,7.0,93,0.00,,,0.00,77,WeatherCatV2.41B14,2017-03-23 15:56:00,
2017-03-23 10:01:00,37.9,35.8,29.68,WNW,292,0.0,3.0,92,0.00,,,0.00,56,WeatherCatV2.41B14,2017-03-23 16:01:00,
2017-03-23 10:06:00,37.8,35.7,29.69,WNW,290,4.0,7.0,92,0.00,,,0.00,51,WeatherCatV2.41B14,2017-03-23 16:06:00,
2017-03-23 10:11:00,37.5,35.4,29.69,WNW,288,4.0,4.0,92,0.00,,,0.00,65,WeatherCatV2.41B14,2017-03-23 16:11:00,
2017-03-23 10:16:00,37.2,35.1,29.69,WNW,292,2.0,4.0,92,0.00,,,0.00,83,WeatherCatV2.41B14,2017-03-23 16:16:00,
2017-03-23 10:21:00,37.0,34.9,29.69,WNW,297,1.0,2.0,92,0.00,,,0.00,81,WeatherCatV2.41B14,2017-03-23 16:21:00,
2017-03-23 10:26:00,36.9,34.8,29.69,WNW,292,4.0,6.0,92,0.00,,,0.00,72,WeatherCatV2.41B14,2017-03-23 16:26:00,
2017-03-23 10:31:00,36.9,34.8,29.69,WNW,283,2.0,4.0,92,0.00,,,0.00,65,WeatherCatV2.41B14,2017-03-23 16:31:00,
2017-03-23 10:36:00,36.8,34.7,29.69,WNW,290,3.0,8.0,92,0.00,,,0.00,67,WeatherCatV2.41B14,2017-03-23 16:36:00,
2017-03-23 10:41:00,36.7,34.6,29.69,WNW,283,7.0,8.0,92,0.00,,,0.00,69,WeatherCatV2.41B14,2017-03-23 16:41:00,
2017-03-23 10:46:00,36.6,34.5,29.70,WNW,290,3.0,7.0,92,0.00,,,0.00,83,WeatherCatV2.41B14,2017-03-23 16:46:00,
2017-03-23 10:51:00,36.6,34.5,29.70,NW,319,4.0,6.0,92,0.00,,,0.00,97,WeatherCatV2.41B14,2017-03-23 16:51:00,
2017-03-23 10:56:00,36.6,34.5,29.70,West,273,8.0,9.0,92,0.00,,,0.00,107,WeatherCatV2.41B14,2017-03-23 16:56:00,
2017-03-23 11:01:00,36.5,34.4,29.70,WNW,294,3.0,8.0,92,0.00,,,0.00,104,WeatherCatV2.41B14,2017-03-23 17:01:00,
2017-03-23 11:06:00,36.5,34.4,29.70,WNW,289,5.0,7.0,92,0.00,,,0.00,100,WeatherCatV2.41B14,2017-03-23 17:06:00,
2017-03-23 11:11:00,36.5,34.4,29.70,West,279,4.0,7.0,92,0.00,,,0.00,90,WeatherCatV2.41B14,2017-03-23 17:11:00,
2017-03-23 11:16:00,36.4,34.3,29.70,WNW,282,2.0,6.0,92,0.00,,,0.00,98,WeatherCatV2.41B14,2017-03-23 17:16:00,
2017-03-23 11:21:00,36.4,34.3,29.71,WNW,292,3.0,4.0,92,0.00,,,0.00,90,WeatherCatV2.41B14,2017-03-23 17:21:00,
2017-03-23 11:26:00,36.4,34.3,29.71,WNW,283,3.0,4.0,92,0.00,,,0.00,84,WeatherCatV2.41B14,2017-03-23 17:26:00,
2017-03-23 11:31:00,36.4,34.3,29.71,WNW,295,5.0,5.0,92,0.00,,,0.00,93,WeatherCatV2.41B14,2017-03-23 17:31:00,
2017-03-23 11:36:00,36.5,34.4,29.71,NW,314,2.0,6.0,92,0.00,,,0.00,97,WeatherCatV2.41B14,2017-03-23 17:36:00,
2017-03-23 11:41:00,36.6,34.8,29.71,NW,318,1.0,3.0,93,0.00,,,0.00,91,WeatherCatV2.41B14,2017-03-23 17:41:00,
2017-03-23 11:46:00,36.6,34.5,29.71,NW,306,3.0,5.0,92,0.00,,,0.00,90,WeatherCatV2.41B14,2017-03-23 17:46:00,
2017-03-23 11:51:00,36.5,34.4,29.71,NW,309,2.0,3.0,92,0.00,,,0.00,86,WeatherCatV2.41B14,2017-03-23 17:51:00,
2017-03-23 11:56:00,36.5,34.4,29.71,WNW,303,5.0,7.0,92,0.00,,,0.00,102,WeatherCatV2.41B14,2017-03-23 17:56:00,
2017-03-23 12:01:00,36.3,34.5,29.71,West,279,2.0,4.0,93,0.00,,,0.00,90,WeatherCatV2.41B14,2017-03-23 18:01:00,
2017-03-23 12:06:00,36.4,34.6,29.71,West,279,0.0,1.0,93,0.00,,,0.00,102,WeatherCatV2.41B14,2017-03-23 18:06:00,
2017-03-23 12:11:00,36.6,35.0,29.71,West,279,1.0,1.0,94,0.00,,,0.00,100,WeatherCatV2.41B14,2017-03-23 18:11:00,
2017-03-23 12:16:00,36.8,35.2,29.71,West,279,0.0,1.0,94,0.00,,,0.00,95,WeatherCatV2.41B14,2017-03-23 18:16:00,
2017-03-23 12:21:00,37.0,35.4,29.71,WNW,290,4.0,5.0,94,0.00,,,0.00,84,WeatherCatV2.41B14,2017-03-23 18:21:00,
2017-03-23 12:26:00,36.9,35.1,29.71,West,280,2.0,4.0,93,0.00,,,0.00,81,WeatherCatV2.41B14,2017-03-23 18:26:00,
2017-03-23 12:31:00,37.0,35.2,29.71,West,280,0.0,3.0,93,0.00,,,0.00,74,WeatherCatV2.41B14,2017-03-23 18:31:00,
2017-03-23 12:36:00,37.1,35.3,29.71,West,280,0.0,1.0,93,0.00,,,0.00,77,WeatherCatV2.41B14,2017-03-23 18:36:00,
2017-03-23 12:41:00,37.3,35.7,29.71,West,280,0.0,1.0,94,0.00,,,0.00,97,WeatherCatV2.41B14,2017-03-23 18:41:00,
2017-03-23 12:45:00,37.3,35.7,29.71,West,280,0.0,0.0,94,0.00,,,0.00,113,WeatherCatV2.41B14,2017-03-23 18:45:00,
2017-03-23 12:50:00,37.4,35.8,29.71,West,280,0.0,0.0,94,0.00,,,0.00,116,WeatherCatV2.41B14,2017-03-23 18:50:00,
2017-03-23 12:55:00,37.3,35.5,29.71,NW,306,5.0,10.0,93,0.00,,,0.00,104,WeatherCatV2.41B14,2017-03-23 18:55:00,
2017-03-23 13:00:00,37.0,34.9,29.71,NW,313,3.0,7.0,92,0.00,,,0.00,97,WeatherCatV2.41B14,2017-03-23 19:00:00,
2017-03-23 13:05:00,36.8,34.7,29.71,West,277,3.0,11.0,92,0.00,,,0.00,100,WeatherCatV2.41B14,2017-03-23 19:05:00,
2017-03-23 13:10:00,36.6,34.5,29.72,WNW,296,5.0,9.0,92,0.00,,,0.00,104,WeatherCatV2.41B14,2017-03-23 19:10:00,
2017-03-23 13:15:00,36.5,34.4,29.72,West,280,7.0,7.0,92,0.00,,,0.00,102,WeatherCatV2.41B14,2017-03-23 19:15:00,
2017-03-23 13:20:00,36.3,34.2,29.73,WNW,284,3.0,4.0,92,0.00,,,0.00,98,WeatherCatV2.41B14,2017-03-23 19:20:00,
2017-03-23 13:25:00,36.2,34.1,29.73,WNW,292,4.0,4.0,92,0.00,,,0.00,102,WeatherCatV2.41B14,2017-03-23 19:25:00,
2017-03-23 13:30:00,36.1,34.0,29.73,WNW,294,5.0,7.0,92,0.00,,,0.00,90,WeatherCatV2.41B14,2017-03-23 19:30:00,
2017-03-23 13:35:00,35.8,33.7,29.74,WNW,284,6.0,10.0,92,0.00,,,0.00,83,WeatherCatV2.41B14,2017-03-23 19:35:00,
2017-03-23 13:41:00,35.6,33.5,29.74,West,277,6.0,9.0,92,0.00,,,0.00,84,WeatherCatV2.41B14,2017-03-23 19:41:00,
2017-03-23 13:46:00,35.6,33.5,29.74,WNW,294,4.0,4.0,92,0.00,,,0.00,79,WeatherCatV2.41B14,2017-03-23 19:46:00,
2017-03-23 13:51:00,35.5,33.4,29.74,West,280,3.0,10.0,92,0.00,,,0.00,84,WeatherCatV2.41B14,2017-03-23 19:51:00,
2017-03-23 14:01:00,35.2,32.8,29.74,WNW,301,7.0,7.0,91,0.00,,,0.00,79,WeatherCatV2.41B14,2017-03-23 20:01:00,
2017-03-23 14:06:00,35.1,33.0,29.74,WNW,289,3.0,5.0,92,0.00,,,0.00,77,WeatherCatV2.41B14,2017-03-23 20:06:00,
2017-03-23 14:11:00,35.1,33.0,29.75,WNW,290,5.0,8.0,92,0.00,,,0.00,79,WeatherCatV2.41B14,2017-03-23 20:11:00,
2017-03-23 14:16:00,35.2,33.1,29.75,NW,307,4.0,12.0,92,0.00,,,0.00,77,WeatherCatV2.41B14,2017-03-23 20:16:00,
2017-03-23 14:21:00,35.3,33.2,29.75,WNW,300,5.0,7.0,92,0.00,,,0.00,76,WeatherCatV2.41B14,2017-03-23 20:21:00,
2017-03-23 14:26:00,35.4,33.3,29.75,WNW,298,7.0,9.0,92,0.00,,,0.00,84,WeatherCatV2.41B14,2017-03-23 20:26:00,
2017-03-23 14:27:00,35.3,33.2,29.75,West,279,7.0,8.0,92,0.00,,,0.00,84,WeatherCatV2.41B14,2017-03-23 20:27:00,
2017-03-23 14:32:00,35.2,33.1,29.75,West,277,4.0,8.0,92,0.00,,,0.00,93,WeatherCatV2.41B14,2017-03-23 20:32:00,
2017-03-23 14:42:00,35.3,33.5,29.75,WNW,283,2.0,2.0,93,0.00,,,0.00,104,WeatherCatV2.41B14,2017-03-23 20:42:00,
2017-03-23 14:47:00,35.4,33.6,29.75,NW,304,5.0,6.0,93,0.00,,,0.00,98,WeatherCatV2.41B14,2017-03-23 20:47:00,
2017-03-23 14:52:00,35.6,33.8,29.75,West,281,2.0,7.0,93,0.00,,,0.00,91,WeatherCatV2.41B14,2017-03-23 20:52:00,
2017-03-23 14:57:00,35.6,33.8,29.76,West,280,6.0,8.0,93,0.00,,,0.00,86,WeatherCatV2.41B14,2017-03-23 20:57:00,
2017-03-23 15:02:00,35.6,33.5,29.76,WNW,289,2.0,4.0,92,0.00,,,0.00,95,WeatherCatV2.41B14,2017-03-23 21:02:00,
2017-03-23 15:07:00,35.6,33.8,29.76,NW,305,3.0,6.0,93,0.00,,,0.00,93,WeatherCatV2.41B14,2017-03-23 21:07:00,
2017-03-23 15:12:00,35.5,33.7,29.76,WNW,286,2.0,3.0,93,0.00,,,0.00,93,WeatherCatV2.41B14,2017-03-23 21:12:00,
2017-03-23 15:17:00,35.7,33.9,29.77,West,275,4.0,6.0,93,0.00,,,0.00,114,WeatherCatV2.41B14,2017-03-23 21:17:00,
2017-03-23 15:22:00,35.9,33.8,29.77,WNW,292,2.0,4.0,92,0.00,,,0.00,125,WeatherCatV2.41B14,2017-03-23 21:22:00,
2017-03-23 15:27:00,36.1,34.0,29.77,WNW,288,7.0,8.0,92,0.00,,,0.00,114,WeatherCatV2.41B14,2017-03-23 21:27:00,
2017-03-23 15:32:00,36.1,34.0,29.77,West,276,6.0,8.0,92,0.00,,,0.00,109,WeatherCatV2.41B14,2017-03-23 21:32:00,